Flight Track Log - Related Links

Times and Time Zones

All times are in EST time to prevent confusion due to time zone crossing. See the ELJ442 flight status page for this flight to view local times or setup timezone preferences in your user account.

Time Position Orientation Groundspeed Altitude Reporting Facility
EST Latitude Longitude Course Direction KTS MPH feet Rate Location/Type
Mon 11:25:26 AM 40.8333 -74.1000 252° West 189 217 1,600  Level New York TRACON
Mon 11:26:20 AM 40.8167 -74.1667 252° West 218 251 4,200 3,158 Climbing New York TRACON
Mon 11:27:20 AM 40.8167 -74.2667 270° West 235 270 7,600 3,140 Climbing New York TRACON
Mon 11:29:33 AM 40.7750 -74.4511 253° West 248 285 14,300 2,938 Climbing New York Center
Mon 11:30:32 AM 40.7386 -74.5533 245° Southwest 310 357 17,000 3,273 Climbing New York Center
Mon 11:31:34 AM 40.6906 -74.6794 243° Southwest 350 403 20,900 3,541 Climbing New York Center
Mon 11:32:34 AM 40.6517 -74.7836 244° Southwest 355 409 24,200 3,074 Climbing New York Center
Mon 11:33:35 AM 40.6058 -74.9067 244° Southwest 355 409 27,100 2,628 Climbing New York Center
Mon 11:34:35 AM 40.5667 -75.0136 244° Southwest 352 405 29,500 2,359 Climbing New York Center
Mon 11:35:32 AM 40.5044 -75.1164 231° Southwest 364 419 31,700 2,186 Climbing New York Center
Mon 11:36:33 AM 40.4336 -75.2292 230° Southwest 374 430 33,800 1,770 Climbing New York Center
Mon 11:37:34 AM 40.3672 -75.3339 230° Southwest 374 430 35,300 1,426 Climbing New York Center
Mon 11:38:35 AM 40.3006 -75.4383 230° Southwest 381 438 36,700 1,462 Climbing New York Center
Mon 11:39:33 AM 40.2406 -75.5294 229° Southwest 381 438 38,200 1,450 Climbing New York Center
Mon 11:40:35 AM 40.1772 -75.6500 236° Southwest 376 433 39,600 900 Climbing New York Center
Mon 11:41:33 AM 40.1294 -75.7444 237° Southwest 362 417 40,000 202 Climbing New York Center
Mon 11:42:34 AM 40.0703 -75.8650 237° Southwest 362 417 40,000  Level New York Center
Mon 11:44:38 AM 39.9564 -76.0922 237° Southwest 351 404 40,000  Level Washington Center
Mon 11:45:39 AM 39.8953 -76.2028 234° Southwest 373 429 40,000  Level Washington Center
Mon 11:46:39 AM 39.8386 -76.3075 235° Southwest 378 435 40,000  Level Washington Center
Mon 11:47:40 AM 39.7836 -76.4206 238° Southwest 378 435 40,000  Level Washington Center
Mon 11:48:38 AM 39.7286 -76.5303 237° Southwest 378 435 40,000  Level Washington Center
Mon 11:49:39 AM 39.6717 -76.6403 236° Southwest 378 435 40,000  Level Washington Center
Mon 11:50:40 AM 39.6144 -76.7497 236° Southwest 378 435 40,000  Level Washington Center
Mon 11:51:38 AM 39.5569 -76.8592 236° Southwest 373 429 40,000  Level Washington Center
Mon 11:52:38 AM 39.5017 -76.9658 236° Southwest 373 429 40,000  Level Washington Center
Mon 11:53:38 AM 39.4214 -77.0583 222° Southwest 373 429 40,000  Level Washington Center
Mon 11:54:40 AM 39.3411 -77.1400 218° Southwest 373 429 40,000  Level Washington Center
Mon 11:55:38 AM 39.2608 -77.2242 219° Southwest 382 440 40,000  Level Washington Center
Mon 11:56:39 AM 39.1783 -77.3106 219° Southwest 382 440 40,000  Level Washington Center
Mon 11:57:40 AM 39.0958 -77.3969 219° Southwest 382 440 40,000  Level Washington Center
Mon 11:58:40 AM 39.0153 -77.4831 220° Southwest 376 433 40,000  Level Washington Center
Mon 11:59:40 AM 38.9389 -77.5586 218° Southwest 384 442 40,000  Level Washington Center
Mon 12:00:38 PM 38.8456 -77.6547 219° Southwest 384 442 40,000  Level Washington Center
Mon 12:01:39 PM 38.7631 -77.7375 218° Southwest 385 443 40,000  Level Washington Center
Mon 12:02:39 PM 38.6822 -77.8231 220° Southwest 397 457 40,000  Level Washington Center
Mon 12:03:40 PM 38.6072 -77.9217 226° Southwest 397 457 40,000  Level Washington Center
Mon 12:04:40 PM 38.5447 -78.0286 233° Southwest 392 451 40,000  Level Washington Center
Mon 12:05:38 PM 38.4797 -78.1406 233° Southwest 392 451 40,000  Level Washington Center
Mon 12:06:38 PM 38.4150 -78.2469 232° Southwest 392 451 40,000  Level Washington Center
Mon 12:07:39 PM 38.3519 -78.3586 234° Southwest 392 451 40,000  Level Washington Center
Mon 12:08:39 PM 38.2869 -78.4672 233° Southwest 392 451 40,000  Level Washington Center
Mon 12:09:40 PM 38.2194 -78.5861 234° Southwest 392 451 40,000  Level Washington Center
Mon 12:10:38 PM 38.1606 -78.6842 233° Southwest 387 445 40,000  Level Washington Center
Mon 12:11:38 PM 38.0972 -78.7897 233° Southwest 387 445 40,000  Level Washington Center
Mon 12:12:39 PM 38.0339 -78.8978 233° Southwest 382 440 40,000  Level Washington Center
Mon 12:13:38 PM 37.9683 -79.0056 232° Southwest 382 440 40,000  Level Washington Center
Mon 12:14:38 PM 37.8983 -79.1208 232° Southwest 382 440 40,000  Level Washington Center
Mon 12:15:39 PM 37.8406 -79.2364 238° Southwest 382 440 40,000  Level Washington Center
Mon 12:16:40 PM 37.7869 -79.3467 238° Southwest 382 440 40,000  Level Washington Center
Mon 12:17:38 PM 37.7314 -79.4594 238° Southwest 382 440 40,000  Level Washington Center
Mon 12:18:38 PM 37.6694 -79.5692 235° Southwest 382 440 40,000  Level Washington Center
Mon 12:19:39 PM 37.6156 -79.6819 239° Southwest 382 440 40,000  Level Washington Center
Mon 12:20:40 PM 37.5572 -79.7939 237° Southwest 382 440 40,000  Level Washington Center
Mon 12:22:32 PM 37.4456 -80.0164 238° Southwest 396 456 40,000  Level Atlanta Center
Mon 12:23:32 PM 37.3889 -80.1264 237° Southwest 396 456 40,000  Level Atlanta Center
Mon 12:24:32 PM 37.3317 -80.2361 237° Southwest 390 449 40,000  Level Atlanta Center
Mon 12:25:32 PM 37.2747 -80.3483 237° Southwest 384 442 40,000  Level Atlanta Center
Mon 12:26:32 PM 37.2253 -80.4419 236° Southwest 379 436 40,000  Level Atlanta Center
Mon 12:27:32 PM 37.1681 -80.5539 237° Southwest 379 436 40,000  Level Atlanta Center
Mon 12:28:32 PM 37.1128 -80.6606 237° Southwest 379 436 40,000  Level Atlanta Center
Mon 12:29:32 PM 37.0617 -80.7694 240° Southwest 379 436 40,000  Level Atlanta Center
Mon 12:30:32 PM 37.0211 -80.8958 248° West 366 421 40,000  Level Atlanta Center
Mon 12:31:32 PM 36.9781 -81.0119 245° Southwest 361 415 40,000  Level Atlanta Center
Mon 12:32:32 PM 36.9392 -81.1250 247° West 361 415 40,000  Level Atlanta Center
Mon 12:33:32 PM 36.8961 -81.2408 245° Southwest 361 415 40,000  Level Atlanta Center
Mon 12:34:32 PM 36.8606 -81.3381 245° Southwest 361 415 40,000  Level Atlanta Center
Mon 12:35:33 PM 36.8194 -81.4536 246° West 361 415 40,000  Level Atlanta Center
Mon 12:36:32 PM 36.7819 -81.5661 247° West 361 415 40,000  Level Atlanta Center
Mon 12:37:32 PM 36.7425 -81.6789 246° West 361 415 40,000  Level Atlanta Center
Mon 12:38:32 PM 36.7008 -81.7914 245° Southwest 361 415 40,000  Level Atlanta Center
Mon 12:39:32 PM 36.6592 -81.9039 245° Southwest 361 415 40,000  Level Atlanta Center
Mon 12:40:32 PM 36.6153 -82.0189 245° Southwest 361 415 40,000  Level Atlanta Center
Mon 12:41:32 PM 36.5753 -82.1283 246° West 361 415 40,000  Level Atlanta Center
Mon 12:42:32 PM 36.5331 -82.2431 245° Southwest 361 415 40,000  Level Atlanta Center
Mon 12:43:32 PM 36.4931 -82.3550 246° West 361 415 40,000  Level Atlanta Center
Mon 12:44:32 PM 36.4506 -82.4644 244° Southwest 361 415 40,000  Level Atlanta Center
Mon 12:45:32 PM 36.4083 -82.5761 245° Southwest 361 415 40,000  Level Atlanta Center
Mon 12:46:32 PM 36.3617 -82.6956 244° Southwest 361 415 40,000  Level Atlanta Center
Mon 12:47:32 PM 36.3211 -82.8044 245° Southwest 361 415 40,000  Level Atlanta Center
Mon 12:48:32 PM 36.2806 -82.9133 245° Southwest 361 415 40,000  Level Atlanta Center
Mon 12:49:32 PM 36.2397 -83.0244 246° West 361 415 40,000  Level Atlanta Center
Mon 12:50:32 PM 36.1989 -83.1306 245° Southwest 356 410 40,000  Level Atlanta Center
Mon 12:51:33 PM 36.1558 -83.2417 244° Southwest 356 410 40,000  Level Atlanta Center
Mon 12:52:32 PM 36.1147 -83.3500 245° Southwest 356 410 40,000  Level Atlanta Center
Mon 12:53:32 PM 36.0714 -83.4581 244° Southwest 356 410 40,000  Level Atlanta Center
Mon 12:54:32 PM 36.0344 -83.5664 247° West 356 410 40,000  Level Atlanta Center
Mon 12:55:32 PM 35.9911 -83.6742 244° Southwest 356 410 40,000  Level Atlanta Center
Mon 12:56:32 PM 35.9475 -83.7847 244° Southwest 356 410 40,000  Level Atlanta Center
Mon 12:57:32 PM 35.9058 -83.8875 243° Southwest 356 410 40,000  Level Atlanta Center
Mon 12:58:32 PM 35.8392 -83.9850 230° Southwest 356 410 40,000  Level Atlanta Center
Mon 12:59:32 PM 35.7725 -84.0797 229° Southwest 362 417 40,000  Level Atlanta Center
Mon 01:00:32 PM 35.7078 -84.1692 228° Southwest 367 422 40,000  Level Atlanta Center
Mon 01:01:32 PM 35.6408 -84.2636 229° Southwest 367 422 40,000  Level Atlanta Center
Mon 01:02:32 PM 35.5739 -84.3553 228° Southwest 362 417 40,000  Level Atlanta Center
Mon 01:03:32 PM 35.5153 -84.4367 229° Southwest 362 417 40,000 -50 Level Atlanta Center
Mon 01:04:32 PM 35.4481 -84.5283 228° Southwest 362 417 39,900 -550 Descending Atlanta Center
Mon 01:05:32 PM 35.3831 -84.6194 229° Southwest 357 411 38,900 -950 Descending Atlanta Center
Mon 01:06:32 PM 35.3139 -84.7158 229° Southwest 362 417 38,000 -450 Descending Atlanta Center
Mon 01:07:32 PM 35.2444 -84.8094 228° Southwest 367 422 38,000  Level Atlanta Center
Mon 01:08:32 PM 35.1769 -84.9028 229° Southwest 367 422 38,000  Level Atlanta Center
Mon 01:09:32 PM 35.1094 -84.9958 228° Southwest 367 422 38,000  Level Atlanta Center
Mon 01:10:32 PM 35.0419 -85.0864 228° Southwest 367 422 38,000  Level Atlanta Center
Mon 01:11:32 PM 34.9767 -85.1744 228° Southwest 362 417 38,000 -300 Level Atlanta Center
Mon 01:12:32 PM 34.9108 -85.2672 229° Southwest 362 417 37,400 -1,300 Descending Atlanta Center
Mon 01:13:32 PM 34.8392 -85.3597 227° Southwest 362 417 35,400 -1,700 Descending Atlanta Center
Mon 01:14:32 PM 34.7669 -85.4547 227° Southwest 369 425 34,000 -700 Descending Atlanta Center
Mon 01:15:32 PM 34.7011 -85.5497 230° Southwest 369 425 34,000  Level Atlanta Center
Mon 01:16:32 PM 34.6311 -85.6392 226° Southwest 374 430 34,000  Level Atlanta Center
Mon 01:17:32 PM 34.5633 -85.7289 227° Southwest 369 425 34,000  Level Atlanta Center
Mon 01:18:33 PM 34.4889 -85.8281 228° Southwest 369 425 34,000 -1,400 Level Atlanta Center
Mon 01:19:32 PM 34.4314 -85.9050 228° Southwest 363 418 31,200 -2,924 Descending Atlanta Center
Mon 01:20:32 PM 34.3672 -85.9917 228° Southwest 358 412 28,200 -3,000 Descending Atlanta Center
Mon 01:21:32 PM 34.2950 -86.0831 226° Southwest 363 418 25,200 -3,304 Descending Atlanta Center
Mon 01:21:41 PM 34.2756 -86.1128 232° Southwest 382 440 24,400 -3,000 Descending Atlanta Center
Mon 01:22:32 PM 34.2244 -86.1792 227° Southwest 380 437 22,200 -2,933 Descending Atlanta Center
Mon 01:23:11 PM 34.1667 -86.2531 227° Southwest 393 452 20,000 -3,000 Descending Atlanta Center
Mon 01:23:32 PM 34.1497 -86.2753 227° Southwest 387 445 19,200 -2,852 Descending Atlanta Center
Mon 01:24:12 PM 34.0897 -86.3564 228° Southwest 383 441 17,100 -2,700 Descending Atlanta Center
Mon 01:24:32 PM 34.0769 -86.3686 218° Southwest 387 445 16,500 -2,951 Descending Atlanta Center
Mon 01:25:13 PM 34.0108 -86.4369 221° Southwest 374 430 14,100 -3,000 Descending Atlanta Center
Mon 01:25:32 PM 33.9961 -86.4492 215° Southwest 377 434 13,500 -2,800 Descending Atlanta Center
Mon 01:26:13 PM 33.9261 -86.4997 211° Southwest 357 411 11,300 -2,500 Descending Atlanta Center
Mon 01:26:32 PM 33.9114 -86.5094 209° Southwest 371 427 11,000 -1,475 Descending Atlanta Center
Mon 01:27:14 PM 33.8481 -86.5475 207° Southwest 297 342 9,800 -1,500 Descending Atlanta Center
Mon 01:27:32 PM 33.8333 -86.5497 187° South 349 402 9,500 -2,000 Descending Atlanta Center
Mon 01:28:14 PM 33.7686 -86.5553 184° South 274 315 7,800 -2,100 Descending Atlanta Center
Mon 01:28:32 PM 33.7561 -86.5572 187° South 307 353 7,400 -1,967 Descending Atlanta Center
Mon 01:29:15 PM 33.6931 -86.5681 188° South 272 313 5,800 -2,000 Descending Atlanta Center
Mon 01:29:32 PM 33.6806 -86.5675 178° South 290 334 5,400 -1,967 Descending Atlanta Center
Mon 01:30:16 PM 33.6200 -86.5783 188° South 266 306 3,800 -2,000 Descending Atlanta Center
Mon 01:30:32 PM 33.6075 -86.5781 179° South 275 316 3,400 -1,333 Descending Atlanta Center
Mon 01:31:10 PM 33.5569 -86.5914 192° South 245 282 2,600 -885 Descending Atlanta Center
Mon 01:31:33 PM 33.5483 -86.6011 223° Southwest 258 297 2,500 -98 Descending Atlanta Center
Mon 01:32:11 PM 33.5203 -86.6500 235° Southwest 203 234 2,500 -229 Level Atlanta Center
Mon 01:33:18 PM 33.5064 -86.7144 256° West 170 196 2,100 -496 Descending Atlanta Center
Mon 01:34:12 PM 33.5222 -86.7497 298° West 142 163 1,500 -667 Descending Atlanta Center
Mon 01:36:00 PM 33.5639 -86.7523 322° Northwest  Level Estimated
Mon 01:43:00 PM 33.5639 -86.7523 140° Southeast  Level Estimated

Login

Don't have an account? Register now (free) for customized features, flight alerts, and more!